sensor_id;sensor_type;location;lat;lon;timestamp;temperature;humidity
7360;DHT22;3720;48.274;7.796;2022-09-01T00:02:21;19.20;99.90
7360;DHT22;3720;48.274;7.796;2022-09-01T00:04:57;19.20;99.90
7360;DHT22;3720;48.274;7.796;2022-09-01T00:07:30;19.20;99.90
7360;DHT22;3720;48.274;7.796;2022-09-01T00:10:05;19.30;99.90
7360;DHT22;3720;48.274;7.796;2022-09-01T00:12:38;19.20;99.90
7360;DHT22;3720;48.274;7.796;2022-09-01T00:15:11;19.20;99.90
7360;DHT22;3720;48.274;7.796;2022-09-01T00:17:43;19.10;99.90
7360;DHT22;3720;48.274;7.796;2022-09-01T00:20:17;19.00;99.90
7360;DHT22;3720;48.274;7.796;2022-09-01T00:22:49;19.00;99.90
7360;DHT22;3720;48.274;7.796;2022-09-01T00:25:22;19.00;99.90
7360;DHT22;3720;48.274;7.796;2022-09-01T00:27:55;18.90;99.90
7360;DHT22;3720;48.274;7.796;2022-09-01T00:30:30;18.80;99.90
7360;DHT22;3720;48.274;7.796;2022-09-01T00:33:02;18.70;99.90
7360;DHT22;3720;48.274;7.796;2022-09-01T00:35:35;18.70;99.90
7360;DHT22;3720;48.274;7.796;2022-09-01T00:38:07;18.70;99.90
7360;DHT22;3720;48.274;7.796;2022-09-01T00:40:39;18.70;99.90
7360;DHT22;3720;48.274;7.796;2022-09-01T00:43:13;18.60;99.90
7360;DHT22;3720;48.274;7.796;2022-09-01T00:45:45;18.60;99.90
7360;DHT22;3720;48.274;7.796;2022-09-01T00:48:18;18.60;99.90
7360;DHT22;3720;48.274;7.796;2022-09-01T00:50:52;18.60;99.90
7360;DHT22;3720;48.274;7.796;2022-09-01T00:53:25;18.60;99.90
7360;DHT22;3720;48.274;7.796;2022-09-01T00:55:57;18.70;99.90
7360;DHT22;3720;48.274;7.796;2022-09-01T00:58:30;18.80;99.90
7360;DHT22;3720;48.274;7.796;2022-09-01T01:01:04;18.90;99.90
7360;DHT22;3720;48.274;7.796;2022-09-01T01:03:37;18.90;99.90
7360;DHT22;3720;48.274;7.796;2022-09-01T01:06:15;18.90;99.90
7360;DHT22;3720;48.274;7.796;2022-09-01T01:08:48;18.90;99.90
7360;DHT22;3720;48.274;7.796;2022-09-01T01:11:29;18.90;99.90
7360;DHT22;3720;48.274;7.796;2022-09-01T01:14:05;18.90;99.90
7360;DHT22;3720;48.274;7.796;2022-09-01T01:16:44;19.00;99.90
7360;DHT22;3720;48.274;7.796;2022-09-01T01:19:21;19.00;99.90
7360;DHT22;3720;48.274;7.796;2022-09-01T01:22:19;19.00;99.90
7360;DHT22;3720;48.274;7.796;2022-09-01T01:25:11;19.00;99.90
7360;DHT22;3720;48.274;7.796;2022-09-01T01:27:44;18.90;99.90
7360;DHT22;3720;48.274;7.796;2022-09-01T01:30:18;18.80;99.90
7360;DHT22;3720;48.274;7.796;2022-09-01T01:32:50;18.90;99.90
7360;DHT22;3720;48.274;7.796;2022-09-01T01:35:22;18.90;99.90
7360;DHT22;3720;48.274;7.796;2022-09-01T01:37:55;19.00;99.90
7360;DHT22;3720;48.274;7.796;2022-09-01T01:40:29;19.00;99.90
7360;DHT22;3720;48.274;7.796;2022-09-01T01:43:01;19.10;99.90
7360;DHT22;3720;48.274;7.796;2022-09-01T01:45:34;19.00;99.90
7360;DHT22;3720;48.274;7.796;2022-09-01T01:48:06;19.00;99.90
7360;DHT22;3720;48.274;7.796;2022-09-01T01:50:40;19.00;99.90
7360;DHT22;3720;48.274;7.796;2022-09-01T01:53:12;19.00;99.90
7360;DHT22;3720;48.274;7.796;2022-09-01T01:55:48;19.00;99.90
7360;DHT22;3720;48.274;7.796;2022-09-01T01:58:22;19.00;99.90
7360;DHT22;3720;48.274;7.796;2022-09-01T02:00:55;19.00;99.90
7360;DHT22;3720;48.274;7.796;2022-09-01T02:03:33;19.00;99.90
7360;DHT22;3720;48.274;7.796;2022-09-01T02:06:09;19.10;99.90
7360;DHT22;3720;48.274;7.796;2022-09-01T02:08:41;19.10;99.90
7360;DHT22;3720;48.274;7.796;2022-09-01T02:11:14;19.20;99.90
7360;DHT22;3720;48.274;7.796;2022-09-01T02:13:47;19.20;99.90
7360;DHT22;3720;48.274;7.796;2022-09-01T02:16:19;19.30;99.90
7360;DHT22;3720;48.274;7.796;2022-09-01T02:18:52;19.30;99.90
7360;DHT22;3720;48.274;7.796;2022-09-01T02:21:25;19.30;99.90
7360;DHT22;3720;48.274;7.796;2022-09-01T02:23:59;19.30;99.90
7360;DHT22;3720;48.274;7.796;2022-09-01T02:26:35;19.30;99.90
7360;DHT22;3720;48.274;7.796;2022-09-01T02:29:10;19.30;99.90
7360;DHT22;3720;48.274;7.796;2022-09-01T02:31:50;19.20;99.90
7360;DHT22;3720;48.274;7.796;2022-09-01T02:34:24;19.10;99.90
7360;DHT22;3720;48.274;7.796;2022-09-01T02:36:58;19.10;99.90
7360;DHT22;3720;48.274;7.796;2022-09-01T02:39:30;19.10;99.90
7360;DHT22;3720;48.274;7.796;2022-09-01T02:42:05;19.10;99.90
7360;DHT22;3720;48.274;7.796;2022-09-01T02:44:37;19.10;99.90
7360;DHT22;3720;48.274;7.796;2022-09-01T02:47:10;19.20;99.90
7360;DHT22;3720;48.274;7.796;2022-09-01T02:49:42;19.20;99.90
7360;DHT22;3720;48.274;7.796;2022-09-01T02:52:17;19.20;99.90
7360;DHT22;3720;48.274;7.796;2022-09-01T02:54:50;19.10;99.90
7360;DHT22;3720;48.274;7.796;2022-09-01T02:57:24;19.10;99.90
7360;DHT22;3720;48.274;7.796;2022-09-01T02:59:57;19.00;99.90
7360;DHT22;3720;48.274;7.796;2022-09-01T03:02:29;18.80;99.90
7360;DHT22;3720;48.274;7.796;2022-09-01T03:05:06;18.80;99.90
7360;DHT22;3720;48.274;7.796;2022-09-01T03:07:39;18.90;99.90
7360;DHT22;3720;48.274;7.796;2022-09-01T03:10:12;18.90;99.90
7360;DHT22;3720;48.274;7.796;2022-09-01T03:12:47;18.90;99.90
7360;DHT22;3720;48.274;7.796;2022-09-01T03:15:19;18.80;99.90
7360;DHT22;3720;48.274;7.796;2022-09-01T03:17:52;18.80;99.90
7360;DHT22;3720;48.274;7.796;2022-09-01T03:20:25;18.70;99.90
7360;DHT22;3720;48.274;7.796;2022-09-01T03:22:57;18.70;99.90
7360;DHT22;3720;48.274;7.796;2022-09-01T03:25:29;18.70;99.90
7360;DHT22;3720;48.274;7.796;2022-09-01T03:28:04;18.70;99.90
7360;DHT22;3720;48.274;7.796;2022-09-01T03:30:36;18.70;99.90
7360;DHT22;3720;48.274;7.796;2022-09-01T03:33:10;18.70;99.90
7360;DHT22;3720;48.274;7.796;2022-09-01T03:35:43;18.60;99.90
7360;DHT22;3720;48.274;7.796;2022-09-01T03:38:15;18.60;99.90
7360;DHT22;3720;48.274;7.796;2022-09-01T03:40:55;18.50;99.90
7360;DHT22;3720;48.274;7.796;2022-09-01T03:43:33;18.50;99.90
7360;DHT22;3720;48.274;7.796;2022-09-01T03:46:05;18.50;99.90
7360;DHT22;3720;48.274;7.796;2022-09-01T03:48:39;18.40;99.90
7360;DHT22;3720;48.274;7.796;2022-09-01T03:51:10;18.40;99.90
7360;DHT22;3720;48.274;7.796;2022-09-01T03:53:43;18.50;99.90
7360;DHT22;3720;48.274;7.796;2022-09-01T03:56:16;18.40;99.90
7360;DHT22;3720;48.274;7.796;2022-09-01T03:58:50;18.30;99.90
7360;DHT22;3720;48.274;7.796;2022-09-01T04:01:22;18.30;99.90
7360;DHT22;3720;48.274;7.796;2022-09-01T04:03:55;18.30;99.90
7360;DHT22;3720;48.274;7.796;2022-09-01T04:06:27;18.30;99.90
7360;DHT22;3720;48.274;7.796;2022-09-01T04:09:00;18.20;99.90
7360;DHT22;3720;48.274;7.796;2022-09-01T04:11:33;18.20;99.90
7360;DHT22;3720;48.274;7.796;2022-09-01T04:14:09;18.10;99.90
7360;DHT22;3720;48.274;7.796;2022-09-01T04:16:42;18.20;99.90
7360;DHT22;3720;48.274;7.796;2022-09-01T04:19:34;18.00;99.90
7360;DHT22;3720;48.274;7.796;2022-09-01T04:22:08;18.00;99.90
7360;DHT22;3720;48.274;7.796;2022-09-01T04:24:43;18.10;99.90
7360;DHT22;3720;48.274;7.796;2022-09-01T04:27:16;18.10;99.90
7360;DHT22;3720;48.274;7.796;2022-09-01T04:29:52;18.10;99.90
7360;DHT22;3720;48.274;7.796;2022-09-01T04:32:26;18.10;99.90
7360;DHT22;3720;48.274;7.796;2022-09-01T04:34:58;18.10;99.90
7360;DHT22;3720;48.274;7.796;2022-09-01T04:37:31;18.10;99.90
7360;DHT22;3720;48.274;7.796;2022-09-01T04:40:06;17.90;99.90
7360;DHT22;3720;48.274;7.796;2022-09-01T04:42:39;17.90;99.90
7360;DHT22;3720;48.274;7.796;2022-09-01T04:45:13;17.90;99.90
7360;DHT22;3720;48.274;7.796;2022-09-01T04:47:46;17.90;99.90
7360;DHT22;3720;48.274;7.796;2022-09-01T04:50:18;17.90;99.90
7360;DHT22;3720;48.274;7.796;2022-09-01T04:52:51;17.80;99.90
7360;DHT22;3720;48.274;7.796;2022-09-01T04:55:26;17.80;99.90
7360;DHT22;3720;48.274;7.796;2022-09-01T04:57:59;17.80;99.90
7360;DHT22;3720;48.274;7.796;2022-09-01T05:00:35;17.80;99.90
7360;DHT22;3720;48.274;7.796;2022-09-01T05:03:07;17.80;99.90
7360;DHT22;3720;48.274;7.796;2022-09-01T05:05:41;17.80;99.90
7360;DHT22;3720;48.274;7.796;2022-09-01T05:08:15;17.80;99.90
7360;DHT22;3720;48.274;7.796;2022-09-01T05:10:48;17.80;99.90
7360;DHT22;3720;48.274;7.796;2022-09-01T05:13:21;17.70;99.90
7360;DHT22;3720;48.274;7.796;2022-09-01T05:16:02;17.70;99.90
7360;DHT22;3720;48.274;7.796;2022-09-01T05:18:35;17.60;99.90
7360;DHT22;3720;48.274;7.796;2022-09-01T05:21:09;17.60;99.90
7360;DHT22;3720;48.274;7.796;2022-09-01T05:23:41;17.70;99.90
7360;DHT22;3720;48.274;7.796;2022-09-01T05:26:14;17.70;99.90
7360;DHT22;3720;48.274;7.796;2022-09-01T05:28:49;17.80;99.90
7360;DHT22;3720;48.274;7.796;2022-09-01T05:31:26;17.70;99.90
7360;DHT22;3720;48.274;7.796;2022-09-01T05:33:58;17.80;99.90
7360;DHT22;3720;48.274;7.796;2022-09-01T05:36:31;17.70;99.90
7360;DHT22;3720;48.274;7.796;2022-09-01T05:39:04;17.70;99.90
7360;DHT22;3720;48.274;7.796;2022-09-01T05:41:37;17.60;99.90
7360;DHT22;3720;48.274;7.796;2022-09-01T05:44:11;17.60;99.90
7360;DHT22;3720;48.274;7.796;2022-09-01T05:46:46;17.70;99.90
7360;DHT22;3720;48.274;7.796;2022-09-01T05:49:19;17.70;99.90
7360;DHT22;3720;48.274;7.796;2022-09-01T05:51:51;17.70;99.90
7360;DHT22;3720;48.274;7.796;2022-09-01T05:54:25;17.70;99.90
7360;DHT22;3720;48.274;7.796;2022-09-01T05:56:58;17.80;99.90
7360;DHT22;3720;48.274;7.796;2022-09-01T05:59:31;17.90;99.90
7360;DHT22;3720;48.274;7.796;2022-09-01T06:02:05;17.90;99.90
7360;DHT22;3720;48.274;7.796;2022-09-01T06:04:39;18.00;99.90
7360;DHT22;3720;48.274;7.796;2022-09-01T06:07:12;18.10;99.90
7360;DHT22;3720;48.274;7.796;2022-09-01T06:09:46;18.10;99.90
7360;DHT22;3720;48.274;7.796;2022-09-01T06:12:18;18.20;99.90
7360;DHT22;3720;48.274;7.796;2022-09-01T06:14:54;18.30;99.90
7360;DHT22;3720;48.274;7.796;2022-09-01T06:17:29;18.30;99.90
7360;DHT22;3720;48.274;7.796;2022-09-01T06:20:01;18.50;99.90
7360;DHT22;3720;48.274;7.796;2022-09-01T06:22:39;18.60;99.90
7360;DHT22;3720;48.274;7.796;2022-09-01T06:25:12;18.70;99.90
7360;DHT22;3720;48.274;7.796;2022-09-01T06:27:47;18.70;99.90
7360;DHT22;3720;48.274;7.796;2022-09-01T06:30:19;18.80;99.90
7360;DHT22;3720;48.274;7.796;2022-09-01T06:32:57;18.80;99.90
7360;DHT22;3720;48.274;7.796;2022-09-01T06:35:30;18.80;99.90
7360;DHT22;3720;48.274;7.796;2022-09-01T06:38:04;18.90;99.90
7360;DHT22;3720;48.274;7.796;2022-09-01T06:40:38;18.80;99.90
7360;DHT22;3720;48.274;7.796;2022-09-01T06:43:12;18.90;99.90
7360;DHT22;3720;48.274;7.796;2022-09-01T06:45:46;18.90;99.90
7360;DHT22;3720;48.274;7.796;2022-09-01T06:48:20;18.90;99.90
7360;DHT22;3720;48.274;7.796;2022-09-01T06:50:53;19.00;99.90
7360;DHT22;3720;48.274;7.796;2022-09-01T06:53:24;19.00;99.90
7360;DHT22;3720;48.274;7.796;2022-09-01T06:55:58;19.10;99.90
7360;DHT22;3720;48.274;7.796;2022-09-01T06:58:30;19.10;99.90
7360;DHT22;3720;48.274;7.796;2022-09-01T07:01:06;19.20;99.90
7360;DHT22;3720;48.274;7.796;2022-09-01T07:03:47;19.20;99.90
7360;DHT22;3720;48.274;7.796;2022-09-01T07:06:21;19.20;99.90
7360;DHT22;3720;48.274;7.796;2022-09-01T07:08:55;19.20;99.90
7360;DHT22;3720;48.274;7.796;2022-09-01T07:11:30;19.30;99.90
7360;DHT22;3720;48.274;7.796;2022-09-01T07:14:04;19.40;99.90
7360;DHT22;3720;48.274;7.796;2022-09-01T07:16:37;19.50;99.90
7360;DHT22;3720;48.274;7.796;2022-09-01T07:19:11;19.60;99.90
7360;DHT22;3720;48.274;7.796;2022-09-01T07:21:44;19.60;99.90
7360;DHT22;3720;48.274;7.796;2022-09-01T07:24:17;19.60;99.90
7360;DHT22;3720;48.274;7.796;2022-09-01T07:26:49;19.60;99.90
7360;DHT22;3720;48.274;7.796;2022-09-01T07:29:22;19.70;99.90
7360;DHT22;3720;48.274;7.796;2022-09-01T07:31:55;19.80;99.90
7360;DHT22;3720;48.274;7.796;2022-09-01T07:34:29;19.90;99.90
7360;DHT22;3720;48.274;7.796;2022-09-01T07:37:01;19.90;99.90
7360;DHT22;3720;48.274;7.796;2022-09-01T07:39:33;19.90;99.90
7360;DHT22;3720;48.274;7.796;2022-09-01T07:42:05;20.00;99.90
7360;DHT22;3720;48.274;7.796;2022-09-01T07:44:40;20.10;99.90
7360;DHT22;3720;48.274;7.796;2022-09-01T07:47:14;20.20;99.90
7360;DHT22;3720;48.274;7.796;2022-09-01T07:49:48;20.20;99.90
7360;DHT22;3720;48.274;7.796;2022-09-01T07:52:20;20.30;99.90
7360;DHT22;3720;48.274;7.796;2022-09-01T07:54:52;20.50;99.90
7360;DHT22;3720;48.274;7.796;2022-09-01T07:57:24;20.60;99.90
7360;DHT22;3720;48.274;7.796;2022-09-01T07:59:56;20.70;99.90
7360;DHT22;3720;48.274;7.796;2022-09-01T08:02:28;20.70;99.90
7360;DHT22;3720;48.274;7.796;2022-09-01T08:05:04;20.80;99.90
7360;DHT22;3720;48.274;7.796;2022-09-01T08:07:38;20.80;99.90
7360;DHT22;3720;48.274;7.796;2022-09-01T08:10:11;20.80;99.90
7360;DHT22;3720;48.274;7.796;2022-09-01T08:12:43;20.90;99.90
7360;DHT22;3720;48.274;7.796;2022-09-01T08:15:16;20.90;99.90
7360;DHT22;3720;48.274;7.796;2022-09-01T08:17:48;21.00;99.90
7360;DHT22;3720;48.274;7.796;2022-09-01T08:20:21;21.00;99.90
7360;DHT22;3720;48.274;7.796;2022-09-01T08:22:54;21.00;99.90
7360;DHT22;3720;48.274;7.796;2022-09-01T08:25:25;21.00;99.90
7360;DHT22;3720;48.274;7.796;2022-09-01T08:27:58;21.10;99.90
7360;DHT22;3720;48.274;7.796;2022-09-01T08:30:31;21.10;99.90
7360;DHT22;3720;48.274;7.796;2022-09-01T08:33:03;21.30;99.90
7360;DHT22;3720;48.274;7.796;2022-09-01T08:35:37;21.40;99.90
7360;DHT22;3720;48.274;7.796;2022-09-01T08:38:09;21.50;99.90
7360;DHT22;3720;48.274;7.796;2022-09-01T08:40:48;21.70;99.90
7360;DHT22;3720;48.274;7.796;2022-09-01T08:43:35;21.80;99.90
7360;DHT22;3720;48.274;7.796;2022-09-01T08:46:13;21.80;99.90
7360;DHT22;3720;48.274;7.796;2022-09-01T08:48:50;21.80;99.90
7360;DHT22;3720;48.274;7.796;2022-09-01T08:51:29;21.80;99.90
7360;DHT22;3720;48.274;7.796;2022-09-01T08:54:09;21.90;99.90
7360;DHT22;3720;48.274;7.796;2022-09-01T08:56:43;21.90;99.90
7360;DHT22;3720;48.274;7.796;2022-09-01T08:59:17;21.80;99.90
7360;DHT22;3720;48.274;7.796;2022-09-01T09:01:57;21.70;99.90
7360;DHT22;3720;48.274;7.796;2022-09-01T09:04:46;21.70;99.90
7360;DHT22;3720;48.274;7.796;2022-09-01T09:07:35;21.90;99.90
7360;DHT22;3720;48.274;7.796;2022-09-01T09:10:16;22.20;99.90
7360;DHT22;3720;48.274;7.796;2022-09-01T09:13:00;22.50;99.90
7360;DHT22;3720;48.274;7.796;2022-09-01T09:15:42;22.60;99.90
7360;DHT22;3720;48.274;7.796;2022-09-01T09:18:19;22.80;99.90
7360;DHT22;3720;48.274;7.796;2022-09-01T09:20:56;23.00;99.90
7360;DHT22;3720;48.274;7.796;2022-09-01T09:23:38;23.10;99.90
7360;DHT22;3720;48.274;7.796;2022-09-01T09:26:11;23.10;99.90
7360;DHT22;3720;48.274;7.796;2022-09-01T09:28:43;23.30;99.90
7360;DHT22;3720;48.274;7.796;2022-09-01T09:31:29;23.50;99.90
7360;DHT22;3720;48.274;7.796;2022-09-01T09:34:01;23.50;99.90
7360;DHT22;3720;48.274;7.796;2022-09-01T09:36:35;23.50;99.90
7360;DHT22;3720;48.274;7.796;2022-09-01T09:39:13;23.50;99.90
7360;DHT22;3720;48.274;7.796;2022-09-01T09:42:04;23.70;99.90
7360;DHT22;3720;48.274;7.796;2022-09-01T09:44:42;23.80;99.90
7360;DHT22;3720;48.274;7.796;2022-09-01T09:50:22;24.20;99.90
7360;DHT22;3720;48.274;7.796;2022-09-01T09:53:25;24.30;99.90
7360;DHT22;3720;48.274;7.796;2022-09-01T09:56:02;24.40;99.90
7360;DHT22;3720;48.274;7.796;2022-09-01T09:58:37;24.70;99.90
7360;DHT22;3720;48.274;7.796;2022-09-01T10:01:12;24.90;99.90
7360;DHT22;3720;48.274;7.796;2022-09-01T10:03:47;25.10;99.90
7360;DHT22;3720;48.274;7.796;2022-09-01T10:06:30;25.30;99.90
7360;DHT22;3720;48.274;7.796;2022-09-01T10:09:06;25.40;99.90
7360;DHT22;3720;48.274;7.796;2022-09-01T10:11:41;25.60;99.90
7360;DHT22;3720;48.274;7.796;2022-09-01T10:14:18;25.70;99.90
7360;DHT22;3720;48.274;7.796;2022-09-01T10:16:55;26.00;99.90
7360;DHT22;3720;48.274;7.796;2022-09-01T10:19:30;26.10;99.90
7360;DHT22;3720;48.274;7.796;2022-09-01T10:22:03;26.40;99.90
7360;DHT22;3720;48.274;7.796;2022-09-01T10:24:37;26.60;99.90
7360;DHT22;3720;48.274;7.796;2022-09-01T10:27:16;26.80;99.90
7360;DHT22;3720;48.274;7.796;2022-09-01T10:29:53;27.00;99.90
7360;DHT22;3720;48.274;7.796;2022-09-01T10:32:31;27.20;99.90
7360;DHT22;3720;48.274;7.796;2022-09-01T10:35:07;27.40;99.90
7360;DHT22;3720;48.274;7.796;2022-09-01T10:37:40;27.50;99.90
7360;DHT22;3720;48.274;7.796;2022-09-01T10:40:17;27.60;99.90
7360;DHT22;3720;48.274;7.796;2022-09-01T10:42:51;27.80;99.90
7360;DHT22;3720;48.274;7.796;2022-09-01T10:45:32;27.80;99.90
7360;DHT22;3720;48.274;7.796;2022-09-01T10:48:28;27.90;99.90
7360;DHT22;3720;48.274;7.796;2022-09-01T10:51:42;28.10;99.90
7360;DHT22;3720;48.274;7.796;2022-09-01T10:57:47;28.60;99.90
7360;DHT22;3720;48.274;7.796;2022-09-01T11:00:48;28.90;99.90
7360;DHT22;3720;48.274;7.796;2022-09-01T11:03:54;29.00;99.90
7360;DHT22;3720;48.274;7.796;2022-09-01T11:06:52;29.20;99.90
7360;DHT22;3720;48.274;7.796;2022-09-01T11:09:25;29.50;99.90
7360;DHT22;3720;48.274;7.796;2022-09-01T11:15:36;30.00;98.00
7360;DHT22;3720;48.274;7.796;2022-09-01T11:18:14;30.30;96.90
7360;DHT22;3720;48.274;7.796;2022-09-01T11:20:47;30.50;96.60
7360;DHT22;3720;48.274;7.796;2022-09-01T11:23:23;30.70;95.60
7360;DHT22;3720;48.274;7.796;2022-09-01T11:25:56;30.90;94.50
7360;DHT22;3720;48.274;7.796;2022-09-01T11:28:40;31.00;92.60
7360;DHT22;3720;48.274;7.796;2022-09-01T11:31:21;31.00;93.10
7360;DHT22;3720;48.274;7.796;2022-09-01T11:34:11;31.20;91.40
7360;DHT22;3720;48.274;7.796;2022-09-01T11:36:57;31.20;91.20
7360;DHT22;3720;48.274;7.796;2022-09-01T11:39:33;31.40;90.30
7360;DHT22;3720;48.274;7.796;2022-09-01T11:42:09;31.60;88.60
7360;DHT22;3720;48.274;7.796;2022-09-01T11:44:48;31.60;86.60
7360;DHT22;3720;48.274;7.796;2022-09-01T11:47:25;31.80;87.10
7360;DHT22;3720;48.274;7.796;2022-09-01T11:50:02;31.90;86.10
7360;DHT22;3720;48.274;7.796;2022-09-01T11:52:36;32.10;84.90
7360;DHT22;3720;48.274;7.796;2022-09-01T11:55:10;32.30;83.60
7360;DHT22;3720;48.274;7.796;2022-09-01T11:57:42;32.60;83.50
7360;DHT22;3720;48.274;7.796;2022-09-01T12:00:25;32.90;81.90
7360;DHT22;3720;48.274;7.796;2022-09-01T12:02:57;33.10;78.50
7360;DHT22;3720;48.274;7.796;2022-09-01T12:05:33;33.30;76.90
7360;DHT22;3720;48.274;7.796;2022-09-01T12:08:12;33.20;74.80
7360;DHT22;3720;48.274;7.796;2022-09-01T12:10:45;32.70;75.50
7360;DHT22;3720;48.274;7.796;2022-09-01T12:13:20;32.60;77.20
7360;DHT22;3720;48.274;7.796;2022-09-01T12:15:55;32.90;77.10
7360;DHT22;3720;48.274;7.796;2022-09-01T12:18:29;33.20;76.60
7360;DHT22;3720;48.274;7.796;2022-09-01T12:21:05;33.60;74.60
7360;DHT22;3720;48.274;7.796;2022-09-01T12:23:39;33.80;73.70
7360;DHT22;3720;48.274;7.796;2022-09-01T12:26:14;33.90;71.70
7360;DHT22;3720;48.274;7.796;2022-09-01T12:28:46;33.50;71.40
7360;DHT22;3720;48.274;7.796;2022-09-01T12:31:22;33.10;72.90
7360;DHT22;3720;48.274;7.796;2022-09-01T12:33:55;33.10;73.20
7360;DHT22;3720;48.274;7.796;2022-09-01T12:36:31;33.30;74.50
7360;DHT22;3720;48.274;7.796;2022-09-01T12:39:20;33.50;73.30
7360;DHT22;3720;48.274;7.796;2022-09-01T12:42:08;33.80;71.30
7360;DHT22;3720;48.274;7.796;2022-09-01T12:44:46;33.90;69.00
7360;DHT22;3720;48.274;7.796;2022-09-01T12:47:48;33.90;67.10
7360;DHT22;3720;48.274;7.796;2022-09-01T12:50:35;34.00;68.40
7360;DHT22;3720;48.274;7.796;2022-09-01T12:53:19;34.20;67.60
7360;DHT22;3720;48.274;7.796;2022-09-01T12:56:01;33.80;65.80
7360;DHT22;3720;48.274;7.796;2022-09-01T12:58:33;33.10;67.20
7360;DHT22;3720;48.274;7.796;2022-09-01T13:01:06;32.60;67.90
7360;DHT22;3720;48.274;7.796;2022-09-01T13:04:09;32.50;68.00
7360;DHT22;3720;48.274;7.796;2022-09-01T13:06:42;32.20;69.30
7360;DHT22;3720;48.274;7.796;2022-09-01T13:09:15;31.80;69.70
7360;DHT22;3720;48.274;7.796;2022-09-01T13:11:48;31.40;71.40
7360;DHT22;3720;48.274;7.796;2022-09-01T13:14:20;31.00;72.30
7360;DHT22;3720;48.274;7.796;2022-09-01T13:16:53;31.00;72.10
7360;DHT22;3720;48.274;7.796;2022-09-01T13:19:25;31.20;74.20
7360;DHT22;3720;48.274;7.796;2022-09-01T13:21:57;31.60;75.10
7360;DHT22;3720;48.274;7.796;2022-09-01T13:24:31;32.10;72.90
7360;DHT22;3720;48.274;7.796;2022-09-01T13:27:03;32.40;70.40
7360;DHT22;3720;48.274;7.796;2022-09-01T13:29:35;32.20;66.70
7360;DHT22;3720;48.274;7.796;2022-09-01T13:32:07;31.70;70.00
7360;DHT22;3720;48.274;7.796;2022-09-01T13:34:39;31.40;71.60
7360;DHT22;3720;48.274;7.796;2022-09-01T13:37:11;31.00;72.90
7360;DHT22;3720;48.274;7.796;2022-09-01T13:39:45;30.60;73.30
7360;DHT22;3720;48.274;7.796;2022-09-01T13:42:18;30.20;74.50
7360;DHT22;3720;48.274;7.796;2022-09-01T13:44:50;29.90;75.70
7360;DHT22;3720;48.274;7.796;2022-09-01T13:47:22;30.00;77.20
7360;DHT22;3720;48.274;7.796;2022-09-01T13:49:54;30.40;77.10
7360;DHT22;3720;48.274;7.796;2022-09-01T13:52:26;31.00;76.70
7360;DHT22;3720;48.274;7.796;2022-09-01T13:55:00;31.50;75.40
7360;DHT22;3720;48.274;7.796;2022-09-01T13:57:32;31.60;73.00
7360;DHT22;3720;48.274;7.796;2022-09-01T14:00:07;31.80;72.60
7360;DHT22;3720;48.274;7.796;2022-09-01T14:02:41;31.80;71.60
7360;DHT22;3720;48.274;7.796;2022-09-01T14:05:20;31.40;72.30
7360;DHT22;3720;48.274;7.796;2022-09-01T14:07:53;31.00;73.50
7360;DHT22;3720;48.274;7.796;2022-09-01T14:10:28;30.60;74.00
7360;DHT22;3720;48.274;7.796;2022-09-01T14:13:01;30.10;76.70
7360;DHT22;3720;48.274;7.796;2022-09-01T14:15:34;29.70;77.50
7360;DHT22;3720;48.274;7.796;2022-09-01T14:18:06;29.60;76.70
7360;DHT22;3720;48.274;7.796;2022-09-01T14:20:42;29.50;77.80
7360;DHT22;3720;48.274;7.796;2022-09-01T14:23:15;29.80;79.10
7360;DHT22;3720;48.274;7.796;2022-09-01T14:25:49;30.30;78.80
7360;DHT22;3720;48.274;7.796;2022-09-01T14:28:22;30.90;75.40
7360;DHT22;3720;48.274;7.796;2022-09-01T14:30:54;31.50;74.70
7360;DHT22;3720;48.274;7.796;2022-09-01T14:33:26;31.60;72.00
7360;DHT22;3720;48.274;7.796;2022-09-01T14:35:59;31.50;70.90
7360;DHT22;3720;48.274;7.796;2022-09-01T14:38:31;31.10;71.20
7360;DHT22;3720;48.274;7.796;2022-09-01T14:41:06;30.70;71.70
7360;DHT22;3720;48.274;7.796;2022-09-01T14:43:38;30.40;72.50
7360;DHT22;3720;48.274;7.796;2022-09-01T14:46:10;30.00;73.50
7360;DHT22;3720;48.274;7.796;2022-09-01T14:48:43;30.00;74.20
7360;DHT22;3720;48.274;7.796;2022-09-01T14:51:21;30.30;74.90
7360;DHT22;3720;48.274;7.796;2022-09-01T14:53:55;30.70;73.80
7360;DHT22;3720;48.274;7.796;2022-09-01T14:56:28;31.20;73.50
7360;DHT22;3720;48.274;7.796;2022-09-01T14:59:01;31.50;72.70
7360;DHT22;3720;48.274;7.796;2022-09-01T15:01:33;31.70;72.80
7360;DHT22;3720;48.274;7.796;2022-09-01T15:04:05;31.90;70.20
7360;DHT22;3720;48.274;7.796;2022-09-01T15:06:37;32.00;70.50
7360;DHT22;3720;48.274;7.796;2022-09-01T15:09:09;31.80;70.10
7360;DHT22;3720;48.274;7.796;2022-09-01T15:11:42;31.30;70.70
7360;DHT22;3720;48.274;7.796;2022-09-01T15:14:15;31.00;73.10
7360;DHT22;3720;48.274;7.796;2022-09-01T15:16:47;30.60;73.60
7360;DHT22;3720;48.274;7.796;2022-09-01T15:19:20;30.30;75.00
7360;DHT22;3720;48.274;7.796;2022-09-01T15:21:52;30.10;74.90
7360;DHT22;3720;48.274;7.796;2022-09-01T15:24:24;30.00;74.70
7360;DHT22;3720;48.274;7.796;2022-09-01T15:26:57;30.10;73.90
7360;DHT22;3720;48.274;7.796;2022-09-01T15:29:29;30.10;74.10
7360;DHT22;3720;48.274;7.796;2022-09-01T15:32:03;30.20;72.80
7360;DHT22;3720;48.274;7.796;2022-09-01T15:34:35;30.10;72.30
7360;DHT22;3720;48.274;7.796;2022-09-01T15:37:07;30.00;73.40
7360;DHT22;3720;48.274;7.796;2022-09-01T15:39:40;29.90;72.90
7360;DHT22;3720;48.274;7.796;2022-09-01T15:42:13;29.80;73.70
7360;DHT22;3720;48.274;7.796;2022-09-01T15:44:46;29.80;73.80
7360;DHT22;3720;48.274;7.796;2022-09-01T15:47:18;29.70;73.80
7360;DHT22;3720;48.274;7.796;2022-09-01T15:49:50;29.60;73.50
7360;DHT22;3720;48.274;7.796;2022-09-01T15:52:23;29.40;74.50
7360;DHT22;3720;48.274;7.796;2022-09-01T15:54:56;29.30;74.50
7360;DHT22;3720;48.274;7.796;2022-09-01T15:57:30;29.10;74.90
7360;DHT22;3720;48.274;7.796;2022-09-01T16:00:03;29.00;75.80
7360;DHT22;3720;48.274;7.796;2022-09-01T16:02:35;29.00;76.40
7360;DHT22;3720;48.274;7.796;2022-09-01T16:05:09;29.00;75.50
7360;DHT22;3720;48.274;7.796;2022-09-01T16:07:42;28.90;76.30
7360;DHT22;3720;48.274;7.796;2022-09-01T16:10:14;28.80;76.80
7360;DHT22;3720;48.274;7.796;2022-09-01T16:12:48;28.90;77.50
7360;DHT22;3720;48.274;7.796;2022-09-01T16:15:23;29.00;77.80
7360;DHT22;3720;48.274;7.796;2022-09-01T16:18:13;29.00;77.30
7360;DHT22;3720;48.274;7.796;2022-09-01T16:20:57;29.00;77.20
7360;DHT22;3720;48.274;7.796;2022-09-01T16:23:35;29.10;76.90
7360;DHT22;3720;48.274;7.796;2022-09-01T16:26:08;29.10;76.70
7360;DHT22;3720;48.274;7.796;2022-09-01T16:28:46;29.10;76.90
7360;DHT22;3720;48.274;7.796;2022-09-01T16:31:22;29.10;77.60
7360;DHT22;3720;48.274;7.796;2022-09-01T16:33:56;28.90;78.10
7360;DHT22;3720;48.274;7.796;2022-09-01T16:36:35;28.70;78.80
7360;DHT22;3720;48.274;7.796;2022-09-01T16:39:15;28.40;79.30
7360;DHT22;3720;48.274;7.796;2022-09-01T16:41:55;28.30;79.50
7360;DHT22;3720;48.274;7.796;2022-09-01T16:44:40;28.30;79.20
7360;DHT22;3720;48.274;7.796;2022-09-01T16:47:25;28.30;79.10
7360;DHT22;3720;48.274;7.796;2022-09-01T16:50:12;28.20;79.00
7360;DHT22;3720;48.274;7.796;2022-09-01T16:52:56;28.10;78.20
7360;DHT22;3720;48.274;7.796;2022-09-01T16:55:36;27.90;79.20
7360;DHT22;3720;48.274;7.796;2022-09-01T16:58:18;27.90;79.90
7360;DHT22;3720;48.274;7.796;2022-09-01T17:01:00;27.80;80.30
7360;DHT22;3720;48.274;7.796;2022-09-01T17:03:38;27.70;80.40
7360;DHT22;3720;48.274;7.796;2022-09-01T17:06:16;27.50;80.10